Athboy, South Dakota
Current Conditions -  °F | °C
As of 11:53 AM on Saturday 25 Oct 2014 (Local Time) from KHEI Reporting Station
Clear Clear  
Wind Chill: 61°   Ceiling: Unl
Heat Index: 61°   Visibility: 10mi
Dew Point: 27°   Wind: 10mph
Humidity: 27%   Direction: 160°SSE
Pressure: 30.12"   Gusts: NA
Location:  45.2919°N, 102.298°W
Report Text: KHEI 251753Z AUTO 16009KT 10SM CLR 16/M03 A3012 RMK AO2 SLP199 T01611028 10161 21028 58014
Loading
Personal Weather Stations






























Interactive Weather Map
Tropical Storm Tracking
New forecast layout! Learn more

10-Day Weather Forecast

Advertisements
Track Severe Weather on mobile